Time;durP1;ratioP1;P1;durP2;ratioP2;P2;SDS_P1;SDS_P2;PMS_P1;PMS_P2;Temp;Humidity;BMP_temperature;BMP_pressure;BME280_temperature;BME280_humidity;BME280_pressure;Samples;Min_cycle;Max_cycle;Signal;HPM_P1;HPM_P2
2023/03/31 00:01:35;;;;;;;5.95;1.40;;;;;;;;;;5015349;28;20109;-80
2023/03/31 00:04:03;;;;;;;3.22;1.75;;;;;;;;;;5010787;28;20406;-79
2023/03/31 00:06:37;;;;;;;4.97;1.50;;;;;;;;;;5005641;28;20029;-81
2023/03/31 00:09:06;;;;;;;3.20;1.20;;;;;;;;;;5019149;28;20060;-81
2023/03/31 00:11:32;;;;;;;4.22;1.08;;;;;;;;;;5015751;28;20033;-81
2023/03/31 00:13:57;;;;;;;8.85;1.67;;;;;;;;;;5014579;28;20026;-81
2023/03/31 00:16:23;;;;;;;5.10;1.13;;;;;;;;;;5014501;28;20041;-81
2023/03/31 00:18:49;;;;;;;3.03;1.05;;;;;;;;;;5016027;28;20033;-80
2023/03/31 00:21:23;;;;;;;4.28;1.33;;;;;;;;;;4995343;28;20026;-80
2023/03/31 00:23:53;;;;;;;3.70;1.70;;;;;;;;;;5015785;28;20045;-80
2023/03/31 00:26:18;;;;;;;4.07;1.38;;;;;;;;;;5009527;28;20108;-80
2023/03/31 00:28:44;;;;;;;7.10;1.35;;;;;;;;;;5017132;28;20057;-80
2023/03/31 00:31:09;;;;;;;2.17;1.10;;;;;;;;;;5018488;28;20500;-80
2023/03/31 00:33:34;;;;;;;2.03;0.93;;;;;;;;;;5019386;28;20033;-80
2023/03/31 00:36:00;;;;;;;2.05;0.98;;;;;;;;;;5014503;28;20582;-80
2023/03/31 00:38:28;;;;;;;4.22;1.15;;;;;;;;;;5015628;28;20037;-81
2023/03/31 00:40:57;;;;;;;3.72;1.20;;;;;;;;;;5025725;28;20030;-81
2023/03/31 00:43:36;;;;;;;1.35;0.90;;;;;;;;;;5021194;28;20084;-81
2023/03/31 00:46:01;;;;;;;4.10;1.08;;;;;;;;;;5018974;28;20026;-81
2023/03/31 00:48:27;;;;;;;3.30;1.08;;;;;;;;;;5019432;28;20052;-81
2023/03/31 00:50:55;;;;;;;3.25;1.30;;;;;;;;;;5030380;28;20056;-81
2023/03/31 00:53:26;;;;;;;3.83;1.38;;;;;;;;;;5051912;28;20022;-81
2023/03/31 00:55:54;;;;;;;3.40;1.17;;;;;;;;;;5014295;28;20468;-81
2023/03/31 00:58:26;;;;;;;3.70;1.05;;;;;;;;;;5008560;28;20017;-81
2023/03/31 01:00:54;;;;;;;2.72;1.33;;;;;;;;;;5009491;28;20069;-81
2023/03/31 01:03:21;;;;;;;6.68;1.00;;;;;;;;;;5014777;28;20129;-81
2023/03/31 01:06:24;;;;;;;3.25;1.10;;;;;;;;;;5015913;28;20496;-81
2023/03/31 01:08:50;;;;;;;1.10;0.73;;;;;;;;;;4993173;28;20037;-80
2023/03/31 01:11:19;;;;;;;5.20;1.77;;;;;;;;;;5001392;28;20037;-80
2023/03/31 01:13:48;;;;;;;5.00;1.73;;;;;;;;;;5009213;28;20404;-81
2023/03/31 01:16:14;;;;;;;4.95;1.13;;;;;;;;;;5004520;28;20360;-81
2023/03/31 01:18:40;;;;;;;4.13;1.35;;;;;;;;;;5012991;28;20033;-81
2023/03/31 01:21:37;;;;;;;3.35;1.02;;;;;;;;;;5002241;28;20338;-80
2023/03/31 01:24:36;;;;;;;5.93;1.52;;;;;;;;;;5014349;28;20109;-80
2023/03/31 01:27:34;;;;;;;5.05;1.40;;;;;;;;;;5016375;28;20030;-81
2023/03/31 01:30:41;;;;;;;6.43;1.00;;;;;;;;;;5012532;28;20153;-81
2023/03/31 01:33:37;;;;;;;2.25;0.93;;;;;;;;;;4987748;28;20555;-81
2023/03/31 01:36:02;;;;;;;2.10;0.93;;;;;;;;;;5010853;28;20041;-81
2023/03/31 01:38:51;;;;;;;7.93;1.83;;;;;;;;;;5006180;28;20048;-81
2023/03/31 01:41:32;;;;;;;3.17;1.80;;;;;;;;;;5018694;28;20125;-81
2023/03/31 01:44:03;;;;;;;2.85;1.17;;;;;;;;;;5012084;28;20044;-81
2023/03/31 01:46:36;;;;;;;1.95;1.17;;;;;;;;;;5007438;28;20040;-81
2023/03/31 01:49:27;;;;;;;5.13;1.33;;;;;;;;;;5019176;28;20029;-80
2023/03/31 01:51:56;;;;;;;2.50;0.90;;;;;;;;;;5010753;28;20515;-81
2023/03/31 01:54:31;;;;;;;6.30;1.20;;;;;;;;;;5008385;28;20120;-81
2023/03/31 01:57:07;;;;;;;1.05;0.93;;;;;;;;;;5011041;28;20113;-80
2023/03/31 01:59:58;;;;;;;2.97;1.00;;;;;;;;;;5011608;28;20030;-80
2023/03/31 02:02:36;;;;;;;2.50;1.20;;;;;;;;;;5005614;28;20026;-80
2023/03/31 02:05:25;;;;;;;2.58;1.00;;;;;;;;;;5008353;28;20044;-80
2023/03/31 02:08:13;;;;;;;1.58;0.98;;;;;;;;;;5006821;28;20026;-81
2023/03/31 02:10:41;;;;;;;2.30;1.10;;;;;;;;;;5002009;28;20607;-80
2023/03/31 02:13:08;;;;;;;6.47;1.02;;;;;;;;;;5012179;28;20365;-80
2023/03/31 02:15:38;;;;;;;2.42;0.82;;;;;;;;;;5009944;28;20034;-80
2023/03/31 02:18:10;;;;;;;2.45;1.15;;;;;;;;;;5013194;28;20025;-80
2023/03/31 02:20:40;;;;;;;1.35;0.95;;;;;;;;;;5001225;28;20068;-80
2023/03/31 02:23:08;;;;;;;3.20;1.20;;;;;;;;;;5006968;28;20370;-80
2023/03/31 02:25:40;;;;;;;4.63;1.20;;;;;;;;;;5013632;28;20037;-80
2023/03/31 02:28:11;;;;;;;8.38;1.23;;;;;;;;;;5011867;28;20045;-81
2023/03/31 02:31:15;;;;;;;2.17;0.90;;;;;;;;;;5011923;28;20110;-81
2023/03/31 02:33:40;;;;;;;1.50;0.75;;;;;;;;;;4998794;28;20037;-81
2023/03/31 02:36:07;;;;;;;3.55;1.10;;;;;;;;;;5012644;28;20022;-81
2023/03/31 02:38:44;;;;;;;2.35;1.20;;;;;;;;;;5008830;28;20052;-81
2023/03/31 02:41:09;;;;;;;5.70;1.25;;;;;;;;;;5023394;28;20407;-81
2023/03/31 02:43:35;;;;;;;1.40;0.95;;;;;;;;;;5017570;28;20037;-81
2023/03/31 02:46:00;;;;;;;6.05;1.20;;;;;;;;;;5012833;28;20479;-81
2023/03/31 02:48:39;;;;;;;3.30;0.95;;;;;;;;;;5012495;28;20076;-81
2023/03/31 02:51:28;;;;;;;1.83;1.20;;;;;;;;;;5015877;28;20495;-80
2023/03/31 02:54:31;;;;;;;2.45;1.45;;;;;;;;;;5018981;28;20550;-80
2023/03/31 02:57:18;;;;;;;5.40;1.55;;;;;;;;;;5026106;28;20115;-80
2023/03/31 03:00:09;;;;;;;2.58;1.30;;;;;;;;;;5011615;28;20748;-81
2023/03/31 03:02:59;;;;;;;4.80;1.63;;;;;;;;;;5003822;28;20062;-81
2023/03/31 03:05:37;;;;;;;0.85;0.85;;;;;;;;;;5011298;28;20030;-80
2023/03/31 03:08:18;;;;;;;3.60;1.35;;;;;;;;;;5020724;28;21352;-80
2023/03/31 03:11:06;;;;;;;4.93;1.30;;;;;;;;;;5009382;28;20424;-80
2023/03/31 03:13:45;;;;;;;5.57;1.50;;;;;;;;;;5008426;28;20129;-80
2023/03/31 03:16:23;;;;;;;7.18;1.85;;;;;;;;;;5014172;28;20026;-81
2023/03/31 03:18:58;;;;;;;3.00;1.23;;;;;;;;;;5020691;28;20408;-80
2023/03/31 03:21:23;;;;;;;1.38;1.05;;;;;;;;;;5011672;28;20040;-80
2023/03/31 03:23:50;;;;;;;4.65;1.50;;;;;;;;;;5009631;28;20105;-80
2023/03/31 03:26:20;;;;;;;2.78;1.45;;;;;;;;;;5010353;28;20052;-80
2023/03/31 03:28:46;;;;;;;6.03;1.60;;;;;;;;;;5018951;28;20021;-80
2023/03/31 03:31:12;;;;;;;8.15;1.55;;;;;;;;;;5054731;28;20029;-80
2023/03/31 03:33:37;;;;;;;3.80;1.65;;;;;;;;;;4997020;28;20034;-80
2023/03/31 03:36:03;;;;;;;6.05;1.55;;;;;;;;;;5009933;28;20056;-80
2023/03/31 03:38:28;;;;;;;3.60;1.80;;;;;;;;;;5014465;28;20030;-80
2023/03/31 03:40:54;;;;;;;2.65;1.23;;;;;;;;;;5017885;28;20115;-80
2023/03/31 03:43:19;;;;;;;3.92;1.70;;;;;;;;;;5013055;28;20030;-80
2023/03/31 03:45:49;;;;;;;4.20;1.80;;;;;;;;;;5017010;28;20025;-80
2023/03/31 03:48:15;;;;;;;2.35;1.20;;;;;;;;;;5015683;28;20033;-81
2023/03/31 03:50:40;;;;;;;14.32;2.33;;;;;;;;;;5005188;28;20026;-80
2023/03/31 03:53:06;;;;;;;2.33;1.40;;;;;;;;;;5038660;28;20036;-80
2023/03/31 03:55:32;;;;;;;5.43;2.00;;;;;;;;;;5040954;28;20520;-80
2023/03/31 03:57:58;;;;;;;5.32;2.13;;;;;;;;;;5020170;28;20029;-79
2023/03/31 04:00:23;;;;;;;2.58;1.52;;;;;;;;;;5016187;28;20048;-80
2023/03/31 04:02:49;;;;;;;6.07;1.60;;;;;;;;;;5019299;28;20038;-80
2023/03/31 04:05:14;;;;;;;1.90;1.40;;;;;;;;;;5010553;28;20033;-80
2023/03/31 04:07:40;;;;;;;4.50;1.50;;;;;;;;;;5012305;28;20057;-80
2023/03/31 04:10:06;;;;;;;3.72;1.90;;;;;;;;;;5011513;28;20096;-80
2023/03/31 04:12:34;;;;;;;2.53;1.67;;;;;;;;;;5018393;28;20029;-80
2023/03/31 04:14:59;;;;;;;1.98;1.55;;;;;;;;;;5018047;28;20036;-80
2023/03/31 04:17:31;;;;;;;1.85;1.50;;;;;;;;;;5012960;28;20128;-80
2023/03/31 04:20:01;;;;;;;4.82;1.92;;;;;;;;;;5007004;28;20022;-81
2023/03/31 04:22:33;;;;;;;4.38;1.60;;;;;;;;;;5003762;28;20062;-81
2023/03/31 04:24:59;;;;;;;3.00;1.63;;;;;;;;;;5015558;28;20022;-81
2023/03/31 04:27:26;;;;;;;3.45;1.77;;;;;;;;;;5017312;28;20076;-81
2023/03/31 04:29:53;;;;;;;6.90;2.03;;;;;;;;;;5031444;28;20041;-81
2023/03/31 04:32:22;;;;;;;8.27;2.20;;;;;;;;;;5018366;28;20038;-81
2023/03/31 04:34:49;;;;;;;4.53;1.85;;;;;;;;;;5068725;22;20041;-82
2023/03/31 04:37:18;;;;;;;6.57;1.85;;;;;;;;;;5054121;28;20187;-83
2023/03/31 04:39:45;;;;;;;5.85;1.85;;;;;;;;;;5060192;28;20029;-84
2023/03/31 04:42:11;;;;;;;3.15;1.63;;;;;;;;;;5040291;28;20094;-83
2023/03/31 04:44:37;;;;;;;7.00;2.00;;;;;;;;;;5060434;28;20025;-84
2023/03/31 04:47:02;;;;;;;6.80;2.30;;;;;;;;;;5039624;28;20068;-84
2023/03/31 04:49:28;;;;;;;4.88;1.98;;;;;;;;;;5040585;28;20467;-84
2023/03/31 04:51:53;;;;;;;4.68;2.00;;;;;;;;;;5033249;28;20394;-83
2023/03/31 04:54:19;;;;;;;4.57;2.00;;;;;;;;;;5038192;28;20022;-83
2023/03/31 04:56:44;;;;;;;3.88;2.55;;;;;;;;;;5045834;28;20025;-82
2023/03/31 04:59:09;;;;;;;9.95;1.70;;;;;;;;;;5053566;28;20017;-81
2023/03/31 05:01:36;;;;;;;6.43;2.45;;;;;;;;;;5032746;28;20085;-81
2023/03/31 05:04:05;;;;;;;6.30;2.08;;;;;;;;;;5038856;28;20049;-83
2023/03/31 05:06:31;;;;;;;7.40;2.40;;;;;;;;;;5054444;28;20029;-82
2023/03/31 05:08:56;;;;;;;7.53;2.25;;;;;;;;;;5053020;28;20040;-81
2023/03/31 05:11:22;;;;;;;2.78;1.90;;;;;;;;;;5037149;28;20044;-79
2023/03/31 05:13:47;;;;;;;4.95;2.38;;;;;;;;;;5047438;28;20029;-82
2023/03/31 05:16:13;;;;;;;5.35;2.33;;;;;;;;;;5053359;28;20036;-84
2023/03/31 05:18:41;;;;;;;3.30;2.35;;;;;;;;;;5043567;28;20035;-82
2023/03/31 05:21:15;;;;;;;4.63;2.17;;;;;;;;;;5032093;28;20020;-82
2023/03/31 05:23:41;;;;;;;5.95;1.95;;;;;;;;;;5028734;28;20025;-87
2023/03/31 05:26:07;;;;;;;6.57;2.05;;;;;;;;;;5017517;28;20160;-88
2023/03/31 05:28:33;;;;;;;5.30;2.13;;;;;;;;;;5036900;28;20052;-82
2023/03/31 05:31:00;;;;;;;11.38;2.80;;;;;;;;;;5035184;28;20657;-85
2023/03/31 05:33:26;;;;;;;6.22;2.20;;;;;;;;;;5019400;28;20128;-85
2023/03/31 05:35:51;;;;;;;12.82;2.90;;;;;;;;;;5028648;28;20059;-86
2023/03/31 05:38:16;;;;;;;5.07;2.42;;;;;;;;;;5031074;28;20036;-84
2023/03/31 05:40:42;;;;;;;6.25;2.33;;;;;;;;;;5015184;28;20025;-85
2023/03/31 05:43:07;;;;;;;7.97;2.80;;;;;;;;;;5038819;28;20025;-86
2023/03/31 05:45:32;;;;;;;6.15;2.70;;;;;;;;;;5004802;28;20022;-84
2023/03/31 05:47:58;;;;;;;6.90;2.17;;;;;;;;;;5018409;28;20027;-86
2023/03/31 05:50:24;;;;;;;8.13;2.75;;;;;;;;;;5036176;28;20033;-85
2023/03/31 05:52:49;;;;;;;6.90;2.30;;;;;;;;;;5035620;28;20044;-86
2023/03/31 05:55:15;;;;;;;7.85;2.70;;;;;;;;;;5031544;28;20048;-83
2023/03/31 05:57:40;;;;;;;5.70;2.55;;;;;;;;;;5032567;28;20029;-86
2023/03/31 06:00:09;;;;;;;4.13;2.28;;;;;;;;;;5038230;28;20087;-85
2023/03/31 06:02:35;;;;;;;4.80;2.90;;;;;;;;;;5035768;28;20410;-85
2023/03/31 06:05:00;;;;;;;2.72;2.42;;;;;;;;;;5037725;28;20060;-83
2023/03/31 06:07:26;;;;;;;13.60;2.90;;;;;;;;;;5037219;28;20029;-84
2023/03/31 06:09:51;;;;;;;8.20;2.63;;;;;;;;;;5015548;28;20120;-86
2023/03/31 06:12:16;;;;;;;5.00;2.22;;;;;;;;;;5029134;28;20116;-86
2023/03/31 06:14:42;;;;;;;7.25;3.00;;;;;;;;;;5017423;28;20030;-84
2023/03/31 06:17:07;;;;;;;12.48;3.22;;;;;;;;;;5036222;28;20032;-84
2023/03/31 06:19:33;;;;;;;6.60;3.28;;;;;;;;;;5037159;28;20096;-84
2023/03/31 06:21:58;;;;;;;6.30;3.00;;;;;;;;;;5022338;28;20699;-86
2023/03/31 06:24:24;;;;;;;10.25;2.97;;;;;;;;;;5006823;28;20423;-85
2023/03/31 06:26:49;;;;;;;5.82;2.58;;;;;;;;;;5026682;28;20386;-83
2023/03/31 06:29:14;;;;;;;8.93;2.55;;;;;;;;;;5032009;28;20029;-88
2023/03/31 06:31:40;;;;;;;8.50;3.72;;;;;;;;;;5041835;28;20467;-86
2023/03/31 06:34:05;;;;;;;8.60;3.22;;;;;;;;;;5044350;28;20030;-85
2023/03/31 06:36:31;;;;;;;5.63;2.97;;;;;;;;;;5009270;28;20093;-87
2023/03/31 06:38:56;;;;;;;6.28;2.63;;;;;;;;;;5053159;28;20029;-83
2023/03/31 06:41:22;;;;;;;6.53;2.67;;;;;;;;;;5061577;28;20033;-85
2023/03/31 06:43:47;;;;;;;11.45;2.90;;;;;;;;;;5042866;28;20066;-87
2023/03/31 06:46:56;;;;;;;14.05;3.33;;;;;;;;;;5060247;28;20048;-85
2023/03/31 06:49:22;;;;;;;5.28;2.55;;;;;;;;;;5060603;28;20451;-86
2023/03/31 06:51:47;;;;;;;8.63;3.00;;;;;;;;;;5047267;28;20455;-86
2023/03/31 06:54:13;;;;;;;6.60;2.75;;;;;;;;;;5022601;28;20507;-85
2023/03/31 06:56:38;;;;;;;8.88;2.67;;;;;;;;;;5039340;28;20021;-83
2023/03/31 06:59:03;;;;;;;11.27;3.22;;;;;;;;;;5031704;28;20028;-84
2023/03/31 07:01:30;;;;;;;6.00;3.05;;;;;;;;;;5032275;28;20495;-85
2023/03/31 07:03:56;;;;;;;10.80;3.60;;;;;;;;;;5020230;28;20168;-82
2023/03/31 07:06:21;;;;;;;6.85;2.83;;;;;;;;;;5321390;22;20450;-84
2023/03/31 07:08:47;;;;;;;7.30;2.55;;;;;;;;;;5042958;28;20395;-85
2023/03/31 07:11:30;;;;;;;7.03;3.10;;;;;;;;;;5042850;28;20076;-87
2023/03/31 07:13:56;;;;;;;4.95;2.95;;;;;;;;;;5033528;28;20029;-85
2023/03/31 07:16:22;;;;;;;10.60;4.03;;;;;;;;;;5041883;28;20032;-83
2023/03/31 07:18:49;;;;;;;6.53;3.58;;;;;;;;;;5025631;28;20030;-85
2023/03/31 07:21:14;;;;;;;9.07;2.83;;;;;;;;;;5042300;28;20064;-85
2023/03/31 07:23:40;;;;;;;6.78;2.47;;;;;;;;;;5045332;28;20025;-85
2023/03/31 07:26:05;;;;;;;3.30;2.00;;;;;;;;;;5027446;28;20021;-84
2023/03/31 07:28:31;;;;;;;3.50;1.85;;;;;;;;;;5028797;28;20394;-85
2023/03/31 07:30:57;;;;;;;6.07;1.88;;;;;;;;;;5048140;28;20029;-85
2023/03/31 07:33:22;;;;;;;2.70;1.95;;;;;;;;;;5025414;28;20029;-84
2023/03/31 07:35:48;;;;;;;5.78;1.80;;;;;;;;;;5046842;28;20049;-85
2023/03/31 07:38:13;;;;;;;2.20;1.42;;;;;;;;;;5047221;28;20025;-86
2023/03/31 07:40:40;;;;;;;2.67;1.27;;;;;;;;;;5048434;28;20029;-86
2023/03/31 07:43:06;;;;;;;4.35;2.10;;;;;;;;;;5029882;28;20045;-85
2023/03/31 07:45:32;;;;;;;3.50;1.88;;;;;;;;;;5044328;28;20029;-84
2023/03/31 07:47:57;;;;;;;2.35;1.40;;;;;;;;;;5025843;28;20029;-85
2023/03/31 07:50:23;;;;;;;2.40;1.23;;;;;;;;;;5029807;28;20467;-87
2023/03/31 07:52:49;;;;;;;3.03;1.60;;;;;;;;;;5030335;28;20040;-85
2023/03/31 07:55:15;;;;;;;2.20;1.10;;;;;;;;;;5029784;28;20112;-86
2023/03/31 07:57:40;;;;;;;1.10;0.80;;;;;;;;;;5034644;28;20410;-85
2023/03/31 08:00:10;;;;;;;2.38;1.30;;;;;;;;;;5037705;28;20538;-85
2023/03/31 08:02:36;;;;;;;1.77;1.00;;;;;;;;;;5040286;28;20029;-84
2023/03/31 08:05:01;;;;;;;1.98;0.60;;;;;;;;;;5033765;28;20021;-85
2023/03/31 08:07:29;;;;;;;1.83;0.80;;;;;;;;;;5020344;28;20065;-85
2023/03/31 08:09:55;;;;;;;1.50;0.95;;;;;;;;;;5020608;28;20407;-85
2023/03/31 08:12:21;;;;;;;0.75;0.75;;;;;;;;;;5038525;28;20463;-85
2023/03/31 08:14:46;;;;;;;3.17;0.80;;;;;;;;;;5027226;28;20472;-84
2023/03/31 08:17:12;;;;;;;0.82;0.70;;;;;;;;;;5021225;28;20305;-85
2023/03/31 08:19:37;;;;;;;1.02;0.88;;;;;;;;;;5039063;28;20483;-83
2023/03/31 08:22:02;;;;;;;2.85;1.00;;;;;;;;;;5038390;28;20544;-83
2023/03/31 08:24:28;;;;;;;2.05;1.13;;;;;;;;;;5039386;28;20109;-84
2023/03/31 08:26:53;;;;;;;3.17;1.02;;;;;;;;;;5025413;28;20021;-83
2023/03/31 08:29:19;;;;;;;1.40;0.60;;;;;;;;;;5054331;28;20055;-82
2023/03/31 08:31:44;;;;;;;3.67;0.90;;;;;;;;;;5054169;28;20499;-83
2023/03/31 08:34:09;;;;;;;4.13;1.27;;;;;;;;;;5053021;28;20093;-84
2023/03/31 08:36:35;;;;;;;0.60;0.43;;;;;;;;;;5022927;28;20026;-85
2023/03/31 08:39:00;;;;;;;0.70;0.70;;;;;;;;;;5040980;28;20120;-85
2023/03/31 08:41:47;;;;;;;1.30;0.73;;;;;;;;;;5039787;28;20574;-85
2023/03/31 08:44:18;;;;;;;5.28;0.93;;;;;;;;;;5037550;28;20052;-84
2023/03/31 08:46:44;;;;;;;2.25;1.00;;;;;;;;;;5039610;28;20022;-85
2023/03/31 08:49:15;;;;;;;1.90;0.77;;;;;;;;;;5022040;28;20090;-85
2023/03/31 08:51:47;;;;;;;1.88;0.85;;;;;;;;;;5021192;28;20029;-84
2023/03/31 08:54:24;;;;;;;2.53;1.20;;;;;;;;;;5013124;28;20026;-85
2023/03/31 08:56:51;;;;;;;1.35;0.93;;;;;;;;;;5005964;28;20037;-84
2023/03/31 08:59:39;;;;;;;2.78;1.33;;;;;;;;;;5017925;28;20072;-85
2023/03/31 09:02:14;;;;;;;0.93;0.90;;;;;;;;;;4998665;28;20037;-84
2023/03/31 09:05:14;;;;;;;1.63;0.98;;;;;;;;;;5017149;28;20542;-84
2023/03/31 09:07:54;;;;;;;4.63;1.13;;;;;;;;;;5019884;28;20033;-84
2023/03/31 09:10:52;;;;;;;5.15;1.30;;;;;;;;;;5019743;28;20037;-85
2023/03/31 09:13:30;;;;;;;1.73;1.13;;;;;;;;;;5025716;28;20487;-84
2023/03/31 09:16:03;;;;;;;4.90;1.20;;;;;;;;;;5057783;28;20029;-84
2023/03/31 09:18:34;;;;;;;3.05;1.10;;;;;;;;;;5057627;28;20028;-84
2023/03/31 09:21:11;;;;;;;1.73;0.90;;;;;;;;;;5040164;28;20025;-83
2023/03/31 09:23:52;;;;;;;1.45;0.65;;;;;;;;;;5059543;28;20029;-83
2023/03/31 09:26:47;;;;;;;7.80;1.33;;;;;;;;;;5038462;28;20062;-83
2023/03/31 09:29:30;;;;;;;1.25;0.80;;;;;;;;;;5007734;28;20133;-84
2023/03/31 09:32:01;;;;;;;1.98;1.23;;;;;;;;;;5039329;28;20067;-84
2023/03/31 09:34:33;;;;;;;5.95;1.10;;;;;;;;;;5038218;28;20087;-84
2023/03/31 09:36:58;;;;;;;4.55;1.50;;;;;;;;;;5020848;28;20026;-84
2023/03/31 09:39:23;;;;;;;5.00;1.08;;;;;;;;;;5022204;28;20071;-84
2023/03/31 09:41:51;;;;;;;3.13;0.80;;;;;;;;;;5011409;28;20067;-85
2023/03/31 09:44:38;;;;;;;6.60;1.27;;;;;;;;;;5005744;28;20045;-86
2023/03/31 09:47:18;;;;;;;4.13;1.45;;;;;;;;;;5019929;28;20296;-84
2023/03/31 09:49:45;;;;;;;4.50;0.98;;;;;;;;;;5026326;28;20022;-85
2023/03/31 09:52:22;;;;;;;4.22;1.25;;;;;;;;;;5035410;28;20026;-85
2023/03/31 09:54:50;;;;;;;6.05;1.27;;;;;;;;;;5023487;28;20033;-85
2023/03/31 09:57:34;;;;;;;4.60;1.08;;;;;;;;;;5031972;28;20030;-85
2023/03/31 10:00:12;;;;;;;2.95;1.25;;;;;;;;;;5050831;28;20021;-84
2023/03/31 10:02:41;;;;;;;3.53;0.82;;;;;;;;;;5048498;28;20036;-85
2023/03/31 10:05:20;;;;;;;3.83;1.13;;;;;;;;;;5033664;28;20009;-84
2023/03/31 10:07:45;;;;;;;4.38;1.33;;;;;;;;;;5034064;28;20044;-84
2023/03/31 10:10:25;;;;;;;5.25;1.25;;;;;;;;;;5042937;28;20021;-85
2023/03/31 10:12:51;;;;;;;6.90;2.22;;;;;;;;;;5028511;28;20049;-83
2023/03/31 10:15:25;;;;;;;6.25;1.52;;;;;;;;;;5074957;28;20590;-86
2023/03/31 10:17:50;;;;;;;2.95;1.02;;;;;;;;;;5045182;28;20033;-85
2023/03/31 10:20:43;;;;;;;4.25;1.15;;;;;;;;;;5029210;28;20367;-85
2023/03/31 10:23:28;;;;;;;7.55;1.08;;;;;;;;;;5006082;28;20500;-85
2023/03/31 10:25:54;;;;;;;3.90;0.98;;;;;;;;;;5040375;28;20034;-85
2023/03/31 10:28:20;;;;;;;4.70;1.00;;;;;;;;;;5051226;28;20038;-85
2023/03/31 10:30:52;;;;;;;0.50;0.50;;;;;;;;;;5034037;28;20025;-84
2023/03/31 10:33:29;;;;;;;4.13;1.40;;;;;;;;;;5030254;28;20135;-84
2023/03/31 10:35:56;;;;;;;5.68;1.10;;;;;;;;;;5014434;28;20044;-84
2023/03/31 10:38:30;;;;;;;5.20;1.35;;;;;;;;;;5013556;28;20029;-84
2023/03/31 10:40:58;;;;;;;3.38;1.30;;;;;;;;;;5013316;28;20033;-86
2023/03/31 10:43:36;;;;;;;3.70;0.90;;;;;;;;;;5034858;28;20022;-85
2023/03/31 10:46:03;;;;;;;2.67;0.65;;;;;;;;;;5032640;28;20116;-86
2023/03/31 10:48:30;;;;;;;4.43;1.45;;;;;;;;;;5017730;28;20021;-85
2023/03/31 10:51:05;;;;;;;0.77;0.40;;;;;;;;;;5028321;28;20415;-86
2023/03/31 10:53:42;;;;;;;2.53;0.85;;;;;;;;;;5033868;28;20053;-86
2023/03/31 10:56:17;;;;;;;3.97;0.93;;;;;;;;;;5014347;28;20443;-85
2023/03/31 10:59:25;;;;;;;4.00;1.30;;;;;;;;;;5019942;28;20031;-85
2023/03/31 11:02:26;;;;;;;1.00;0.68;;;;;;;;;;5039843;28;20053;-86
2023/03/31 11:05:01;;;;;;;3.25;0.90;;;;;;;;;;5034739;28;20533;-86
2023/03/31 11:07:51;;;;;;;4.68;1.25;;;;;;;;;;5015672;28;20483;-86
2023/03/31 11:10:47;;;;;;;5.20;1.08;;;;;;;;;;5026797;28;20025;-82
2023/03/31 11:13:37;;;;;;;6.50;1.30;;;;;;;;;;5024425;28;20037;-84
2023/03/31 11:16:21;;;;;;;1.45;0.40;;;;;;;;;;5028954;28;20040;-82
2023/03/31 11:18:53;;;;;;;0.80;0.52;;;;;;;;;;5027632;28;20189;-83
2023/03/31 11:21:19;;;;;;;2.97;0.65;;;;;;;;;;5028139;28;20092;-83
2023/03/31 11:24:22;;;;;;;1.77;0.73;;;;;;;;;;5018737;28;20037;-80
2023/03/31 11:27:17;;;;;;;2.30;0.32;;;;;;;;;;5044191;28;20017;-83
2023/03/31 11:30:06;;;;;;;0.50;0.47;;;;;;;;;;5040353;28;20029;-86
2023/03/31 11:32:47;;;;;;;1.05;0.45;;;;;;;;;;5022337;28;20026;-83
2023/03/31 11:35:42;;;;;;;2.53;0.52;;;;;;;;;;5022666;28;20045;-85
2023/03/31 11:38:34;;;;;;;1.75;0.88;;;;;;;;;;5016868;28;20053;-85
2023/03/31 11:41:10;;;;;;;;;;;;;;;;;;5030104;28;20135;-83
2023/03/31 11:43:41;;;;;;;0.10;0.10;;;;;;;;;;5002873;28;20471;-86
2023/03/31 11:46:32;;;;;;;5.55;0.60;;;;;;;;;;5022756;28;20025;-85
2023/03/31 11:49:20;;;;;;;0.30;0.30;;;;;;;;;;5033787;28;20030;-86
2023/03/31 11:52:28;;;;;;;0.85;0.50;;;;;;;;;;5006092;28;20034;-85
2023/03/31 11:55:36;;;;;;;0.32;0.32;;;;;;;;;;5000448;28;20045;-86
2023/03/31 11:58:16;;;;;;;2.55;0.93;;;;;;;;;;5016309;28;20013;-85
2023/03/31 12:00:50;;;;;;;1.75;0.50;;;;;;;;;;5017544;28;20032;-85
2023/03/31 12:03:21;;;;;;;2.95;0.60;;;;;;;;;;5020566;28;20505;-85
2023/03/31 12:05:49;;;;;;;0.35;0.35;;;;;;;;;;5022141;28;20045;-85
2023/03/31 12:08:25;;;;;;;0.55;0.40;;;;;;;;;;5021628;28;20033;-86
2023/03/31 12:10:54;;;;;;;0.25;0.25;;;;;;;;;;5038641;28;20033;-85
2023/03/31 12:13:35;;;;;;;0.55;0.55;;;;;;;;;;5023291;28;20495;-85
2023/03/31 12:16:08;;;;;;;0.10;0.10;;;;;;;;;;5027273;28;20037;-85
2023/03/31 12:18:41;;;;;;;1.77;0.60;;;;;;;;;;5038166;28;20032;-86
2023/03/31 12:21:09;;;;;;;3.30;0.52;;;;;;;;;;5036487;28;20037;-85
2023/03/31 12:23:41;;;;;;;1.25;0.70;;;;;;;;;;5027106;28;20037;-86
2023/03/31 12:26:30;;;;;;;0.80;0.30;;;;;;;;;;5019528;28;20025;-86
2023/03/31 12:29:04;;;;;;;2.10;0.60;;;;;;;;;;5018806;28;20112;-87
2023/03/31 12:31:31;;;;;;;2.17;0.45;;;;;;;;;;5019392;28;20132;-86
2023/03/31 12:34:09;;;;;;;4.72;0.70;;;;;;;;;;5018561;28;20034;-86
2023/03/31 12:36:59;;;;;;;7.15;0.55;;;;;;;;;;5019251;28;20049;-86
2023/03/31 12:39:47;;;;;;;1.38;0.17;;;;;;;;;;5003286;28;20033;-85
2023/03/31 12:42:50;;;;;;;0.32;0.30;;;;;;;;;;5023621;28;20033;-85
2023/03/31 12:45:30;;;;;;;0.75;0.60;;;;;;;;;;5011178;28;20479;-85
2023/03/31 12:48:07;;;;;;;1.27;0.50;;;;;;;;;;5027272;28;20434;-84
2023/03/31 12:50:42;;;;;;;0.85;0.57;;;;;;;;;;5009535;28;20029;-84
2023/03/31 12:53:20;;;;;;;1.10;0.32;;;;;;;;;;5019826;28;20029;-85
2023/03/31 12:55:48;;;;;;;0.52;0.40;;;;;;;;;;5028530;28;20047;-85
2023/03/31 12:58:33;;;;;;;2.88;0.50;;;;;;;;;;5024822;28;20109;-85
2023/03/31 13:01:09;;;;;;;2.72;0.30;;;;;;;;;;5027178;28;20029;-86
2023/03/31 13:03:38;;;;;;;2.45;0.52;;;;;;;;;;5023526;28;20048;-86
2023/03/31 13:06:06;;;;;;;1.27;0.65;;;;;;;;;;5023511;28;20025;-85
2023/03/31 13:08:51;;;;;;;0.60;0.50;;;;;;;;;;5024308;28;20057;-86
2023/03/31 13:11:19;;;;;;;1.95;0.73;;;;;;;;;;5009964;28;20033;-84
2023/03/31 13:13:57;;;;;;;1.95;0.77;;;;;;;;;;5018524;28;20732;-85
2023/03/31 13:16:25;;;;;;;3.45;0.90;;;;;;;;;;5013350;28;20162;-85
2023/03/31 13:18:53;;;;;;;1.35;0.57;;;;;;;;;;5016145;28;20432;-84
2023/03/31 13:21:19;;;;;;;0.88;0.70;;;;;;;;;;5027936;28;20036;-86
2023/03/31 13:23:45;;;;;;;1.13;0.52;;;;;;;;;;5031907;28;20030;-84
2023/03/31 13:26:31;;;;;;;1.05;0.57;;;;;;;;;;5021310;28;20017;-84
2023/03/31 13:29:15;;;;;;;3.10;0.80;;;;;;;;;;5008693;28;20041;-85
2023/03/31 13:31:59;;;;;;;0.40;0.40;;;;;;;;;;5023365;28;20488;-84
2023/03/31 13:34:32;;;;;;;3.05;0.68;;;;;;;;;;5011822;28;20038;-83
2023/03/31 13:37:27;;;;;;;3.20;0.90;;;;;;;;;;5032663;28;20029;-84
2023/03/31 13:40:15;;;;;;;0.68;0.50;;;;;;;;;;5030288;28;20034;-84
2023/03/31 13:42:40;;;;;;;0.65;0.57;;;;;;;;;;5028775;28;20013;-86
2023/03/31 13:45:46;;;;;;;0.20;0.20;;;;;;;;;;5047858;28;20032;-82
2023/03/31 13:48:36;;;;;;;0.38;0.38;;;;;;;;;;5039327;28;20092;-83
2023/03/31 13:51:24;;;;;;;0.30;0.30;;;;;;;;;;5061726;28;20056;-86
2023/03/31 13:53:58;;;;;;;4.00;0.52;;;;;;;;;;5033782;28;20025;-85
2023/03/31 13:57:01;;;;;;;0.20;0.20;;;;;;;;;;5043784;28;20108;-86
2023/03/31 13:59:32;;;;;;;0.57;0.30;;;;;;;;;;5035627;28;20439;-87
2023/03/31 14:02:24;;;;;;;0.27;0.27;;;;;;;;;;5027176;28;20052;-87
2023/03/31 14:05:08;;;;;;;0.13;0.13;;;;;;;;;;5030758;28;20117;-85
2023/03/31 14:07:45;;;;;;;0.50;0.50;;;;;;;;;;5024662;28;20277;-84
2023/03/31 14:10:27;;;;;;;3.50;0.85;;;;;;;;;;5024606;28;20029;-85
2023/03/31 14:13:04;;;;;;;0.55;0.30;;;;;;;;;;5029589;28;20029;-82
2023/03/31 14:15:30;;;;;;;0.52;0.40;;;;;;;;;;5021984;28;20057;-83
2023/03/31 14:17:55;;;;;;;0.70;0.50;;;;;;;;;;5032986;28;20057;-85
2023/03/31 14:20:30;;;;;;;0.38;0.30;;;;;;;;;;5028204;28;20024;-83
2023/03/31 14:23:17;;;;;;;0.95;0.40;;;;;;;;;;5044761;28;20045;-84
2023/03/31 14:25:45;;;;;;;0.43;0.30;;;;;;;;;;5047126;28;20046;-84
2023/03/31 14:28:45;;;;;;;1.25;0.40;;;;;;;;;;5040039;28;20480;-83
2023/03/31 14:31:33;;;;;;;0.40;0.40;;;;;;;;;;5034807;28;20021;-83
2023/03/31 14:34:19;;;;;;;0.10;0.10;;;;;;;;;;5018548;28;20053;-82
2023/03/31 14:36:59;;;;;;;0.80;0.40;;;;;;;;;;5033079;28;20049;-84
2023/03/31 14:39:47;;;;;;;1.48;0.73;;;;;;;;;;5017045;28;20025;-86
2023/03/31 14:42:15;;;;;;;1.15;0.35;;;;;;;;;;5023447;28;20029;-84
2023/03/31 14:44:44;;;;;;;1.20;0.40;;;;;;;;;;5014075;28;20049;-84
2023/03/31 14:47:18;;;;;;;0.55;0.50;;;;;;;;;;5024481;28;20022;-84
2023/03/31 14:49:44;;;;;;;4.60;0.82;;;;;;;;;;5036830;28;20033;-83
2023/03/31 14:52:22;;;;;;;2.00;1.13;;;;;;;;;;5041550;28;20182;-86
2023/03/31 14:54:47;;;;;;;3.00;0.75;;;;;;;;;;5038245;28;20098;-84
2023/03/31 14:57:20;;;;;;;0.20;0.20;;;;;;;;;;5041963;28;20037;-83
2023/03/31 14:59:48;;;;;;;1.65;0.40;;;;;;;;;;5035668;28;20041;-83
2023/03/31 15:02:18;;;;;;;0.35;0.30;;;;;;;;;;5021387;28;20075;-84
2023/03/31 15:04:48;;;;;;;0.52;0.30;;;;;;;;;;5039202;28;20449;-84
2023/03/31 15:07:15;;;;;;;0.60;0.57;;;;;;;;;;5038964;28;20064;-83
2023/03/31 15:09:48;;;;;;;0.45;0.45;;;;;;;;;;5024137;28;20164;-84
2023/03/31 15:12:14;;;;;;;0.50;0.40;;;;;;;;;;5038825;28;20033;-85
2023/03/31 15:14:45;;;;;;;0.80;0.35;;;;;;;;;;5016350;28;20021;-85
2023/03/31 15:17:18;;;;;;;0.47;0.40;;;;;;;;;;5021124;28;20515;-85
2023/03/31 15:19:43;;;;;;;4.10;0.30;;;;;;;;;;5021140;28;20090;-84